createdAt,value
2019-04-26T00:00:46.307Z,97186.49
2019-04-26T00:01:57.340Z,97200.64
2019-04-26T00:03:02.655Z,97209.09
2019-04-26T00:04:05.317Z,97217.22
2019-04-26T00:05:09.390Z,97214.66
2019-04-26T00:06:14.613Z,97211.42
2019-04-26T00:07:23.798Z,97212.52
2019-04-26T00:08:26.703Z,97210.95
2019-04-26T00:09:36.570Z,97208.41
2019-04-26T00:10:51.394Z,97213.82
2019-04-26T00:12:16.419Z,97215.86
2019-04-26T00:13:41.039Z,97215.36
2019-04-26T00:15:02.489Z,97215.36
2019-04-26T00:16:30.766Z,97221.63
2019-04-26T00:17:52.261Z,97221.78
2019-04-26T00:18:57.929Z,97223.69
2019-04-26T00:20:02.011Z,97225.11
2019-04-26T00:21:04.716Z,97218.27
2019-04-26T00:22:08.486Z,97220.86
2019-04-26T00:23:12.055Z,97222.89
2019-04-26T00:24:15.268Z,97222.62
2019-04-26T00:25:18.651Z,97222.62
2019-04-26T00:26:22.758Z,97221.63
2019-04-26T00:27:25.466Z,97223.67
2019-04-26T00:28:28.108Z,97221.30
2019-04-26T00:29:31.156Z,97223.67
2019-04-26T00:30:34.150Z,97223.77
2019-04-26T00:31:36.803Z,97223.77
2019-04-26T00:32:39.802Z,97229.31
2019-04-26T00:33:42.437Z,97222.53
2019-04-26T00:34:47.871Z,97225.16
2019-04-26T00:35:50.563Z,97231.83
2019-04-26T00:36:53.338Z,97241.84
2019-04-26T00:37:55.945Z,97250.83
2019-04-26T00:38:59.300Z,97250.83
2019-04-26T00:40:01.939Z,97264.06
2019-04-26T00:41:04.624Z,97264.47
2019-04-26T00:42:07.669Z,97272.00
2019-04-26T00:43:10.292Z,97272.00
2019-04-26T00:44:14.783Z,97275.19
2019-04-26T00:45:18.731Z,97280.34
2019-04-26T00:46:23.034Z,97279.71
2019-04-26T00:47:25.757Z,97282.47
2019-04-26T00:48:28.724Z,97282.47
2019-04-26T00:49:43.013Z,97289.52
2019-04-26T00:50:35.868Z,97297.92
2019-04-26T00:51:38.795Z,97299.77
2019-04-26T00:52:41.827Z,97295.74
2019-04-26T00:53:44.922Z,97294.09
2019-04-26T00:54:47.599Z,97292.56
2019-04-26T00:55:50.281Z,97292.39
2019-04-26T00:56:52.913Z,97280.66
2019-04-26T00:57:55.897Z,97276.99
2019-04-26T00:58:58.598Z,97276.99
2019-04-26T01:00:01.290Z,97261.52
2019-04-26T01:01:04.339Z,97262.03
2019-04-26T01:02:25.123Z,97265.61
2019-04-26T01:03:27.830Z,97259.70
2019-04-26T01:04:31.140Z,97259.70
2019-04-26T01:05:35.600Z,97257.40
2019-04-26T01:06:40.535Z,97252.78
2019-04-26T01:07:46.143Z,97249.25
2019-04-26T01:08:51.116Z,97250.45
2019-04-26T01:09:53.158Z,97259.58
2019-04-26T01:10:59.222Z,97268.52
2019-04-26T01:12:03.060Z,97272.69
2019-04-26T01:13:05.691Z,97273.85
2019-04-26T01:14:08.318Z,97266.05
2019-04-26T01:15:11.017Z,97269.30
2019-04-26T01:16:14.143Z,97271.73
2019-04-26T01:17:17.678Z,97273.88
2019-04-26T01:18:22.285Z,97273.93
2019-04-26T01:19:25.021Z,97275.61
2019-04-26T01:20:27.718Z,97275.61
2019-04-26T01:21:30.438Z,97277.30
2019-04-26T01:22:33.091Z,97277.30
2019-04-26T01:23:36.113Z,97278.36
2019-04-26T01:24:38.786Z,97285.42
2019-04-26T01:25:44.517Z,97291.45
2019-04-26T01:26:47.275Z,97299.65
2019-04-26T01:27:50.313Z,97292.31
2019-04-26T01:28:53.397Z,97295.66
2019-04-26T01:29:56.474Z,97293.22
2019-04-26T01:30:59.204Z,97291.33
2019-04-26T01:32:01.943Z,97297.58
2019-04-26T01:33:05.068Z,97295.52
2019-04-26T01:34:07.708Z,97294.91
2019-04-26T01:35:10.329Z,97299.65
2019-04-26T01:36:13.834Z,97299.88
2019-04-26T01:37:16.733Z,97298.74
2019-04-26T01:38:20.388Z,97303.00
2019-04-26T01:39:24.424Z,97309.72
2019-04-26T01:40:28.685Z,97304.98
2019-04-26T01:41:40.269Z,97304.81
2019-04-26T01:43:07.269Z,97305.88
2019-04-26T01:44:27.166Z,97305.88
2019-04-26T01:45:48.985Z,97309.33
2019-04-26T01:46:52.431Z,97315.41
2019-04-26T01:47:55.410Z,97320.66
2019-04-26T01:48:58.156Z,97327.76
2019-04-26T01:50:00.770Z,97334.29
2019-04-26T01:51:03.783Z,97335.64
2019-04-26T01:52:06.955Z,97336.53
2019-04-26T01:53:09.669Z,97342.22
2019-04-26T01:54:12.312Z,97343.81
2019-04-26T01:55:14.952Z,97339.27
2019-04-26T01:56:17.600Z,97334.84
2019-04-26T01:57:20.964Z,97334.84
2019-04-26T01:58:25.232Z,97328.54
2019-04-26T01:59:29.442Z,97326.05
2019-04-26T02:01:00.464Z,97331.70
2019-04-26T02:02:28.472Z,97330.46
2019-04-26T02:03:31.870Z,97317.75
2019-04-26T02:04:36.481Z,97306.27
2019-04-26T02:05:39.498Z,97316.95
2019-04-26T02:06:42.181Z,97329.65
2019-04-26T02:07:44.833Z,97329.92
2019-04-26T02:08:47.487Z,97328.30
2019-04-26T02:09:50.572Z,97328.30
2019-04-26T02:10:53.280Z,97329.82
2019-04-26T02:11:56.232Z,97329.72
2019-04-26T02:12:58.838Z,97329.72
2019-04-26T02:14:01.498Z,97329.12
2019-04-26T02:15:04.496Z,97325.52
2019-04-26T02:16:07.212Z,97329.85
2019-04-26T02:17:09.944Z,97322.33
2019-04-26T02:18:12.912Z,97317.64
2019-04-26T02:19:15.615Z,97312.66
2019-04-26T02:20:18.368Z,97312.00
2019-04-26T02:21:30.051Z,97312.00
2019-04-26T02:22:39.979Z,97325.86
2019-04-26T02:24:04.761Z,97325.86
2019-04-26T02:25:07.403Z,97322.45
2019-04-26T02:26:28.293Z,97330.83
2019-04-26T02:27:34.573Z,97326.55
2019-04-26T02:28:37.252Z,97328.38
2019-04-26T02:29:39.896Z,97328.38
2019-04-26T02:30:42.851Z,97319.31
2019-04-26T02:31:45.625Z,97321.38
2019-04-26T02:32:48.260Z,97320.01
2019-04-26T02:33:50.959Z,97313.52
2019-04-26T02:34:53.736Z,97313.52
2019-04-26T02:35:56.410Z,97309.20
2019-04-26T02:36:59.396Z,97313.45
2019-04-26T02:38:02.030Z,97319.67
2019-04-26T02:39:05.727Z,97314.44
2019-04-26T02:40:08.383Z,97316.40
2019-04-26T02:41:11.142Z,97314.25
2019-04-26T02:42:13.867Z,97314.25
2019-04-26T02:43:16.889Z,97306.92
2019-04-26T02:44:21.952Z,97313.01
2019-04-26T02:45:44.910Z,97314.14
2019-04-26T02:46:54.424Z,97314.90
2019-04-26T02:48:18.121Z,97314.90
2019-04-26T02:49:27.420Z,97314.96
2019-04-26T02:50:36.573Z,97313.83
2019-04-26T02:51:40.042Z,97315.74
2019-04-26T02:52:42.746Z,97312.05
2019-04-26T02:53:45.413Z,97312.05
2019-04-26T02:54:48.074Z,97326.86
2019-04-26T02:55:52.242Z,97332.47
2019-04-26T02:56:55.242Z,97333.62
2019-04-26T02:57:57.971Z,97336.91
2019-04-26T02:59:01.000Z,97339.17
2019-04-26T03:00:03.828Z,97334.42
2019-04-26T03:01:06.492Z,97333.48
2019-04-26T03:02:09.448Z,97336.19
2019-04-26T03:03:12.693Z,97337.41
2019-04-26T03:04:15.352Z,97337.41
2019-04-26T03:05:22.756Z,97347.92
2019-04-26T03:06:25.507Z,97347.92
2019-04-26T03:07:28.241Z,97354.97
2019-04-26T03:08:33.391Z,97356.02
2019-04-26T03:09:36.999Z,97355.56
2019-04-26T03:10:40.355Z,97354.08
2019-04-26T03:11:43.658Z,97351.02
2019-04-26T03:12:46.332Z,97351.02
2019-04-26T03:13:54.271Z,97349.42
2019-04-26T03:15:28.097Z,97337.05
2019-04-26T03:16:53.634Z,97328.78
2019-04-26T03:18:02.312Z,97328.78
2019-04-26T03:19:18.577Z,97333.56
2019-04-26T03:20:21.571Z,97333.33
2019-04-26T03:21:24.514Z,97331.84
2019-04-26T03:22:27.211Z,97333.20
2019-04-26T03:23:45.888Z,97344.51
2019-04-26T03:24:37.219Z,97359.17
2019-04-26T03:25:42.110Z,97359.17
2019-04-26T03:26:44.941Z,97364.39
2019-04-26T03:27:47.870Z,97349.42
2019-04-26T03:28:50.520Z,97349.42
2019-04-26T03:30:05.029Z,97346.70
2019-04-26T03:30:58.305Z,97346.70
2019-04-26T03:32:01.303Z,97364.50
2019-04-26T03:33:04.177Z,97376.63
2019-04-26T03:34:07.592Z,97381.76
2019-04-26T03:35:28.228Z,97367.34
2019-04-26T03:36:37.938Z,97369.94
2019-04-26T03:38:05.585Z,97369.94
2019-04-26T03:39:15.457Z,97372.58
2019-04-26T03:40:36.390Z,97368.34
2019-04-26T03:41:41.051Z,97380.94
2019-04-26T03:42:44.173Z,97365.43
2019-04-26T03:43:46.854Z,97366.09
2019-04-26T03:44:49.567Z,97363.69
2019-04-26T03:45:52.212Z,97367.45
2019-04-26T03:46:54.907Z,97366.76
2019-04-26T03:47:57.918Z,97365.63
2019-04-26T03:49:00.571Z,97365.63
2019-04-26T03:50:03.631Z,97368.22
2019-04-26T03:51:06.372Z,97376.52
2019-04-26T03:52:09.536Z,97376.31
2019-04-26T03:53:14.280Z,97371.53
2019-04-26T03:54:16.921Z,97358.81
2019-04-26T03:55:19.712Z,97358.81
2019-04-26T03:56:26.725Z,97355.75
2019-04-26T03:57:36.903Z,97355.03
2019-04-26T03:59:01.123Z,97370.47
2019-04-26T04:00:24.624Z,97370.48
2019-04-26T04:01:27.471Z,97365.95
2019-04-26T04:02:41.533Z,97368.33
2019-04-26T04:04:00.349Z,97373.44
2019-04-26T04:05:11.450Z,97378.41
2019-04-26T04:06:17.538Z,97380.94
2019-04-26T04:07:35.608Z,97380.94
2019-04-26T04:08:24.627Z,97390.47
2019-04-26T04:09:29.158Z,97389.34
2019-04-26T04:10:31.796Z,97389.34
2019-04-26T04:11:37.502Z,97394.78
2019-04-26T04:12:41.446Z,97390.55
2019-04-26T04:13:48.210Z,97390.55
2019-04-26T04:14:48.820Z,97384.54
2019-04-26T04:15:51.737Z,97389.74
2019-04-26T04:16:58.390Z,97385.13
2019-04-26T04:18:02.041Z,97385.13
2019-04-26T04:19:04.773Z,97380.81
2019-04-26T04:20:23.619Z,97369.39
2019-04-26T04:21:42.577Z,97367.92
2019-04-26T04:22:46.886Z,97380.52
2019-04-26T04:23:49.762Z,97389.51
2019-04-26T04:24:53.363Z,97389.51
2019-04-26T04:25:56.003Z,97392.12
2019-04-26T04:26:59.516Z,97394.52
2019-04-26T04:28:03.415Z,97391.16
2019-04-26T04:29:18.785Z,97389.91
2019-04-26T04:30:21.785Z,97386.14
2019-04-26T04:31:24.473Z,97393.59
2019-04-26T04:32:27.141Z,97396.65
2019-04-26T04:33:29.786Z,97401.95
2019-04-26T04:34:32.532Z,97402.99
2019-04-26T04:35:35.334Z,97402.99
2019-04-26T04:36:38.342Z,97399.36
2019-04-26T04:38:02.635Z,97399.16
2019-04-26T04:38:47.540Z,97398.27
2019-04-26T04:39:50.164Z,97387.38
2019-04-26T04:41:13.006Z,97387.38
2019-04-26T04:42:21.059Z,97390.64
2019-04-26T04:43:38.101Z,97397.67
2019-04-26T04:44:44.467Z,97402.66
2019-04-26T04:45:55.242Z,97403.70
2019-04-26T04:47:24.348Z,97401.31
2019-04-26T04:48:36.651Z,97401.31
2019-04-26T04:49:44.953Z,97399.36
2019-04-26T04:50:52.585Z,97399.36
2019-04-26T04:51:55.437Z,97388.40
2019-04-26T04:52:58.083Z,97388.40
2019-04-26T04:54:00.754Z,97394.78
2019-04-26T04:55:07.733Z,97393.26
2019-04-26T04:56:08.160Z,97393.26
2019-04-26T04:57:11.346Z,97394.84
2019-04-26T04:58:14.044Z,97396.64
2019-04-26T04:59:16.723Z,97387.02
2019-04-26T05:00:33.157Z,97387.02
2019-04-26T05:01:52.471Z,97379.03
2019-04-26T05:03:01.592Z,97388.73
2019-04-26T05:04:07.418Z,97392.34
2019-04-26T05:05:19.333Z,97401.97
2019-04-26T05:06:41.234Z,97414.43
2019-04-26T05:07:45.066Z,97414.43
2019-04-26T05:08:50.905Z,97418.48
2019-04-26T05:09:56.105Z,97415.19
2019-04-26T05:10:58.768Z,97412.61
2019-04-26T05:12:01.432Z,97406.04
2019-04-26T05:13:04.108Z,97406.80
2019-04-26T05:14:07.170Z,97416.53
2019-04-26T05:15:11.472Z,97410.11
2019-04-26T05:16:18.951Z,97417.00
2019-04-26T05:17:21.794Z,97418.92
2019-04-26T05:18:24.467Z,97418.92
2019-04-26T05:19:32.989Z,97417.48
2019-04-26T05:20:35.634Z,97417.23
2019-04-26T05:21:38.773Z,97416.20
2019-04-26T05:22:41.437Z,97412.73
2019-04-26T05:23:45.678Z,97420.05
2019-04-26T05:24:49.156Z,97419.84
2019-04-26T05:26:02.273Z,97420.79
2019-04-26T05:27:22.148Z,97420.79
2019-04-26T05:28:27.470Z,97422.11
2019-04-26T05:29:30.316Z,97429.73
2019-04-26T05:44:05.059Z,97434.70
2019-04-26T05:45:26.522Z,97439.20
2019-04-26T05:46:37.007Z,97445.33
2019-04-26T05:48:05.311Z,97447.47
2019-04-26T05:49:05.131Z,97449.73
2019-04-26T05:50:13.863Z,97449.73
2019-04-26T05:51:24.244Z,97453.63
2019-04-26T05:52:28.917Z,97453.63
2019-04-26T05:53:51.048Z,97455.14
2019-04-26T05:55:04.614Z,97447.11
2019-04-26T05:56:12.377Z,97448.37
2019-04-26T05:57:19.026Z,97452.56
2019-04-26T05:58:21.755Z,97451.01
2019-04-26T05:59:24.538Z,97451.01
2019-04-26T06:00:50.412Z,97449.81
2019-04-26T06:02:23.163Z,97441.31
2019-04-26T06:03:32.461Z,97443.90
2019-04-26T06:05:03.111Z,97449.78
2019-04-26T06:06:17.859Z,97449.13
2019-04-26T06:07:33.314Z,97451.09
2019-04-26T06:08:43.392Z,97452.19
2019-04-26T06:10:03.568Z,97452.19
2019-04-26T06:11:14.960Z,97465.09
2019-04-26T06:12:18.470Z,97465.09
2019-04-26T06:13:39.235Z,97472.38
2019-04-26T06:15:03.572Z,97471.97
2019-04-26T06:16:14.939Z,97469.05
2019-04-26T06:17:45.606Z,97469.05
2019-04-26T06:19:01.923Z,97489.36
2019-04-26T06:20:07.372Z,97485.01
2019-04-26T06:21:10.179Z,97489.53
2019-04-26T06:22:13.002Z,97492.55
2019-04-26T06:23:15.829Z,97491.36
2019-04-26T06:24:18.736Z,97484.13
2019-04-26T06:25:26.266Z,97483.83
2019-04-26T06:26:34.718Z,97483.83
2019-04-26T06:27:50.568Z,97483.14
2019-04-26T06:28:53.461Z,97484.22
2019-04-26T06:29:59.738Z,97484.22
2019-04-26T06:31:03.490Z,97481.14
2019-04-26T06:32:06.362Z,97486.39
2019-04-26T06:33:10.303Z,97484.64
2019-04-26T06:34:13.211Z,97487.45
2019-04-26T06:35:16.158Z,97487.42
2019-04-26T06:36:24.733Z,97492.38
2019-04-26T06:37:37.232Z,97491.63
2019-04-26T06:38:57.833Z,97491.63
2019-04-26T06:40:02.224Z,97490.29
2019-04-26T06:41:05.089Z,97493.36
2019-04-26T06:42:08.668Z,97493.36
2019-04-26T06:43:18.376Z,97495.30
2019-04-26T06:44:26.207Z,97490.89
2019-04-26T06:45:46.155Z,97496.19
2019-04-26T06:47:04.607Z,97496.19
2019-04-26T06:48:12.779Z,97490.55
2019-04-26T06:49:36.213Z,97490.55
2019-04-26T06:50:42.882Z,97500.56
2019-04-26T06:51:45.694Z,97502.22
2019-04-26T06:52:48.632Z,97502.22
2019-04-26T06:53:51.465Z,97499.72
2019-04-26T06:54:54.157Z,97499.72
2019-04-26T06:56:03.043Z,97507.30
2019-04-26T06:57:14.162Z,97520.60
2019-04-26T06:58:17.066Z,97515.37
2019-04-26T06:59:19.752Z,97528.59
2019-04-26T07:00:29.001Z,97531.40
2019-04-26T07:01:32.682Z,97534.31
2019-04-26T07:02:35.926Z,97534.31
2019-04-26T07:03:38.805Z,97543.72
2019-04-26T07:04:43.999Z,97543.72
2019-04-26T07:05:46.574Z,97542.18
2019-04-26T07:06:49.515Z,97538.54
2019-04-26T07:07:52.320Z,97546.59
2019-04-26T07:08:57.748Z,97535.48
2019-04-26T07:10:00.456Z,97548.72
2019-04-26T07:11:04.797Z,97549.31
2019-04-26T07:12:26.851Z,97543.53
2019-04-26T07:13:43.262Z,97543.53
2019-04-26T07:14:48.838Z,97542.33
2019-04-26T07:15:53.810Z,97542.33
2019-04-26T07:16:56.513Z,97549.92
2019-04-26T07:18:04.413Z,97546.87
2019-04-26T07:19:08.170Z,97554.77
2019-04-26T07:20:30.329Z,97549.20
2019-04-26T07:21:39.458Z,97549.20
2019-04-26T07:22:54.996Z,97538.58
2019-04-26T07:24:18.810Z,97533.86
2019-04-26T07:25:23.508Z,97533.86
2019-04-26T07:26:26.683Z,97513.99
2019-04-26T07:27:29.503Z,97503.84
2019-04-26T07:28:37.085Z,97500.59
2019-04-26T07:29:39.427Z,97500.59
2019-04-26T07:30:43.048Z,97509.97
2019-04-26T07:31:47.803Z,97516.34
2019-04-26T07:32:57.315Z,97522.09
2019-04-26T07:34:00.813Z,97530.91
2019-04-26T07:35:08.700Z,97534.03
2019-04-26T07:36:12.015Z,97538.63
2019-04-26T07:37:14.897Z,97541.19
2019-04-26T07:38:18.113Z,97547.84
2019-04-26T07:39:33.398Z,97547.84
2019-04-26T07:40:43.488Z,97542.67
2019-04-26T07:41:51.447Z,97540.55
2019-04-26T07:43:01.843Z,97538.17
2019-04-26T07:44:07.653Z,97532.55
2019-04-26T07:45:17.687Z,97535.52
2019-04-26T07:46:22.928Z,97541.13
2019-04-26T07:47:25.806Z,97538.61
2019-04-26T07:48:28.659Z,97539.66
2019-04-26T07:49:34.927Z,97534.53
2019-04-26T07:50:38.093Z,97533.92
2019-04-26T07:51:41.363Z,97531.07
2019-04-26T07:52:44.311Z,97535.52
2019-04-26T07:53:47.175Z,97535.52
2019-04-26T07:54:50.057Z,97537.36
2019-04-26T07:55:57.617Z,97554.78
2019-04-26T07:57:04.523Z,97555.17
2019-04-26T07:58:09.002Z,97556.48
2019-04-26T07:59:12.865Z,97560.11
2019-04-26T08:00:16.196Z,97567.93
2019-04-26T08:01:29.818Z,97567.93
2019-04-26T08:03:05.472Z,97568.53
2019-04-26T08:04:13.976Z,97576.86
2019-04-26T08:05:26.577Z,97572.90
2019-04-26T08:06:32.725Z,97572.90
2019-04-26T08:07:37.179Z,97575.59
2019-04-26T08:08:44.813Z,97575.18
2019-04-26T08:09:59.994Z,97570.99
2019-04-26T08:10:57.008Z,97570.99
2019-04-26T08:12:00.247Z,97570.44
2019-04-26T08:13:04.439Z,97562.11
2019-04-26T08:14:08.508Z,97553.97
2019-04-26T08:15:39.506Z,97548.06
2019-04-26T08:17:01.110Z,97550.56
2019-04-26T08:18:13.053Z,97555.31
2019-04-26T08:19:16.004Z,97555.31
2019-04-26T08:20:22.854Z,97570.27
2019-04-26T08:21:48.108Z,97570.81
2019-04-26T08:22:53.038Z,97573.27
2019-04-26T08:24:03.236Z,97574.80
2019-04-26T08:25:13.093Z,97575.17
2019-04-26T08:26:15.946Z,97581.80
2019-04-26T08:27:23.528Z,97581.80
2019-04-26T08:28:23.270Z,97586.00
2019-04-26T08:29:26.391Z,97599.67
2019-04-26T08:30:34.245Z,97594.53
2019-04-26T08:31:37.114Z,97594.53
2019-04-26T08:32:42.656Z,97606.23
2019-04-26T08:33:49.865Z,97609.34
2019-04-26T08:34:53.193Z,97603.95
2019-04-26T08:35:59.036Z,97610.44
2019-04-26T08:37:20.632Z,97610.44
2019-04-26T08:38:23.513Z,97606.26
2019-04-26T08:39:44.469Z,97610.20
2019-04-26T08:40:39.187Z,97611.55
2019-04-26T08:41:43.843Z,97611.55
2019-04-26T08:42:57.318Z,97610.51
2019-04-26T08:44:24.145Z,97603.04
2019-04-26T08:45:37.206Z,97603.04
2019-04-26T08:46:58.853Z,97608.22
2019-04-26T08:48:27.725Z,97613.09
2019-04-26T08:49:47.395Z,97616.61
2019-04-26T08:50:53.434Z,97612.89
2019-04-26T08:51:57.509Z,97604.62
2019-04-26T08:53:00.489Z,97604.62
2019-04-26T08:54:04.603Z,97614.66
2019-04-26T08:55:14.230Z,97618.59
2019-04-26T08:56:25.058Z,97611.91
2019-04-26T08:57:27.919Z,97611.70
2019-04-26T08:58:30.867Z,97614.90
2019-04-26T08:59:34.713Z,97615.67
2019-04-26T09:00:53.515Z,97615.67
2019-04-26T09:02:15.651Z,97615.37
2019-04-26T09:03:37.209Z,97618.73
2019-04-26T09:04:48.480Z,97619.75
2019-04-26T09:06:22.372Z,97618.70
2019-04-26T09:07:28.805Z,97623.61
2019-04-26T09:08:32.094Z,97617.29
2019-04-26T09:09:40.021Z,97615.83
2019-04-26T09:10:44.238Z,97618.48
2019-04-26T09:11:58.910Z,97617.67
2019-04-26T09:12:51.551Z,97620.38
2019-04-26T09:13:54.510Z,97622.20
2019-04-26T09:14:57.429Z,97622.20
2019-04-26T09:16:00.388Z,97627.48
2019-04-26T09:17:06.379Z,97633.19
2019-04-26T09:18:12.783Z,97628.25
2019-04-26T09:19:15.788Z,97631.83
2019-04-26T09:20:28.625Z,97634.95
2019-04-26T09:21:38.786Z,97633.91
2019-04-26T09:23:03.874Z,97633.91
2019-04-26T09:24:26.677Z,97638.66
2019-04-26T09:25:34.421Z,97625.64
2019-04-26T09:26:59.518Z,97638.80
2019-04-26T09:28:25.850Z,97620.95
2019-04-26T09:29:49.300Z,97628.28
2019-04-26T09:30:57.671Z,97619.94
2019-04-26T09:32:11.979Z,97619.23
2019-04-26T09:33:20.547Z,97627.27
2019-04-26T09:34:23.851Z,97626.50
2019-04-26T09:35:26.918Z,97627.55
2019-04-26T09:36:30.199Z,97628.65
2019-04-26T09:37:35.278Z,97626.61
2019-04-26T09:38:38.094Z,97642.64
2019-04-26T09:39:43.284Z,97636.45
2019-04-26T09:40:47.728Z,97636.45
2019-04-26T09:41:51.654Z,97635.55
2019-04-26T09:43:10.286Z,97638.95
2019-04-26T09:44:37.616Z,97638.95
2019-04-26T09:46:06.335Z,97638.46
2019-04-26T09:47:24.056Z,97638.46
2019-04-26T09:48:36.831Z,97638.27
2019-04-26T09:50:01.410Z,97640.41
2019-04-26T09:51:07.288Z,97638.58
2019-04-26T09:52:15.961Z,97641.05
2019-04-26T09:53:23.424Z,97642.67
2019-04-26T09:54:26.719Z,97642.03
2019-04-26T09:55:35.463Z,97642.28
2019-04-26T09:56:35.810Z,97651.22
2019-04-26T09:57:46.255Z,97647.09
2019-04-26T09:58:50.212Z,97652.53
2019-04-26T09:59:53.044Z,97656.96
2019-04-26T10:00:56.347Z,97656.96
2019-04-26T10:02:00.270Z,97649.45
2019-04-26T10:03:05.487Z,97649.45
2019-04-26T10:04:07.629Z,97657.85
2019-04-26T10:05:13.578Z,97662.82
2019-04-26T10:06:18.057Z,97648.44
2019-04-26T10:07:22.621Z,97655.20
2019-04-26T10:08:27.637Z,97653.55
2019-04-26T10:09:38.125Z,97650.42
2019-04-26T10:10:42.697Z,97660.20
2019-04-26T10:11:51.311Z,97659.64
2019-04-26T10:13:25.314Z,97659.64
2019-04-26T10:14:58.773Z,97664.40
2019-04-26T10:16:12.655Z,97665.04
2019-04-26T10:17:27.318Z,97671.95
2019-04-26T10:18:30.138Z,97674.97
2019-04-26T10:19:47.038Z,97667.08
2019-04-26T10:20:50.361Z,97667.08
2019-04-26T10:21:53.168Z,97666.14
2019-04-26T10:22:59.789Z,97666.14
2019-04-26T10:24:04.512Z,97661.85
2019-04-26T10:25:15.906Z,97661.85
2019-04-26T10:26:11.824Z,97661.66
2019-04-26T10:27:14.670Z,97651.69
2019-04-26T10:28:17.543Z,97653.33
2019-04-26T10:29:25.649Z,97659.28
2019-04-26T10:42:57.046Z,97644.62
2019-04-26T10:44:03.837Z,97644.62
2019-04-26T10:45:10.465Z,97649.98
2019-04-26T10:46:13.449Z,97650.86
2019-04-26T10:47:18.034Z,97657.56
2019-04-26T10:48:25.674Z,97673.25
2019-04-26T10:49:30.097Z,97665.14
2019-04-26T10:50:34.416Z,97665.14
2019-04-26T10:51:43.363Z,97659.52
2019-04-26T10:53:05.356Z,97652.36
2019-04-26T10:54:23.951Z,97650.44
2019-04-26T10:55:46.573Z,97652.92
2019-04-26T10:56:55.045Z,97668.35
2019-04-26T10:58:05.128Z,97659.60
2019-04-26T10:59:17.828Z,97659.60
2019-04-26T11:00:33.566Z,97652.20
2019-04-26T11:01:36.696Z,97651.02
2019-04-26T11:02:40.137Z,97655.14
2019-04-26T11:03:43.454Z,97652.81
2019-04-26T11:04:49.605Z,97653.02
2019-04-26T11:06:00.428Z,97647.46
2019-04-26T11:07:03.702Z,97647.46
2019-04-26T11:08:08.740Z,97649.41
2019-04-26T11:09:12.622Z,97637.02
2019-04-26T11:10:24.479Z,97653.37
2019-04-26T11:11:31.284Z,97646.17
2019-04-26T11:12:34.936Z,97656.38
2019-04-26T11:13:37.766Z,97656.38
2019-04-26T11:14:40.716Z,97643.59
2019-04-26T11:15:43.930Z,97640.17
2019-04-26T11:16:48.127Z,97643.24
2019-04-26T11:17:54.017Z,97640.53
2019-04-26T11:19:01.145Z,97640.53
2019-04-26T11:20:10.498Z,97649.41
2019-04-26T11:21:09.582Z,97640.30
2019-04-26T11:22:12.716Z,97646.99
2019-04-26T11:23:15.755Z,97639.98
2019-04-26T11:24:19.383Z,97640.88
2019-04-26T11:25:24.617Z,97643.26
2019-04-26T11:26:31.086Z,97642.12
2019-04-26T11:27:34.947Z,97636.91
2019-04-26T11:28:37.770Z,97636.91
2019-04-26T11:29:40.777Z,97643.48
2019-04-26T11:30:43.587Z,97654.63
2019-04-26T11:31:47.434Z,97651.44
2019-04-26T11:32:50.226Z,97663.59
2019-04-26T11:34:04.627Z,97663.70
2019-04-26T11:34:58.663Z,97658.94
2019-04-26T11:36:07.333Z,97658.11
2019-04-26T11:37:09.163Z,97654.37
2019-04-26T11:38:12.476Z,97668.23
2019-04-26T11:39:17.281Z,97664.36
2019-04-26T11:40:20.203Z,97661.17
2019-04-26T11:41:23.442Z,97661.17
2019-04-26T11:42:26.559Z,97659.97
2019-04-26T11:43:29.844Z,97659.97
2019-04-26T11:44:33.045Z,97666.20
2019-04-26T11:45:35.995Z,97666.20
2019-04-26T11:46:44.666Z,97655.06
2019-04-26T11:47:55.481Z,97660.25
2019-04-26T11:48:58.534Z,97651.17
2019-04-26T11:49:52.861Z,97651.17
2019-04-26T11:50:58.859Z,97662.73
2019-04-26T11:52:02.796Z,97658.00
2019-04-26T11:53:10.188Z,97656.89
2019-04-26T11:54:13.067Z,97648.02
2019-04-26T11:55:16.025Z,97650.97
2019-04-26T11:56:19.936Z,97658.05
2019-04-26T11:57:23.462Z,97646.21
2019-04-26T11:58:26.548Z,97646.21
2019-04-26T11:59:30.552Z,97654.15
2019-04-26T12:00:39.628Z,97655.41
2019-04-26T12:01:42.449Z,97647.70
2019-04-26T12:02:46.311Z,97647.70
2019-04-26T12:04:07.483Z,97635.63
2019-04-26T12:05:30.993Z,97632.10
2019-04-26T12:06:42.036Z,97627.80
2019-04-26T12:07:57.411Z,97627.80
2019-04-26T12:09:07.564Z,97628.73
2019-04-26T12:10:12.053Z,97637.37
2019-04-26T12:11:18.631Z,97627.83
2019-04-26T12:12:19.612Z,97634.64
2019-04-26T12:13:24.910Z,97645.08
2019-04-26T12:14:29.440Z,97632.47
2019-04-26T12:15:39.161Z,97619.50
2019-04-26T12:16:49.498Z,97632.70
2019-04-26T12:17:58.041Z,97632.70
2019-04-26T12:18:52.515Z,97631.88
2019-04-26T12:19:55.488Z,97631.88
2019-04-26T12:21:01.047Z,97635.55
2019-04-26T12:22:04.321Z,97635.55
2019-04-26T12:23:08.179Z,97645.55
2019-04-26T12:24:17.617Z,97637.12
2019-04-26T12:25:20.883Z,97639.51
2019-04-26T12:26:23.811Z,97645.23
2019-04-26T12:27:30.790Z,97640.58
2019-04-26T12:28:36.300Z,97643.70
2019-04-26T12:29:37.867Z,97649.85
2019-04-26T12:30:40.655Z,97649.85
2019-04-26T12:31:48.420Z,97645.40
2019-04-26T12:32:53.740Z,97640.13
2019-04-26T12:33:56.750Z,97649.47
2019-04-26T12:35:01.318Z,97652.10
2019-04-26T12:36:09.623Z,97652.10
2019-04-26T12:37:19.807Z,97653.33
2019-04-26T12:38:18.046Z,97653.33
2019-04-26T12:39:21.296Z,97662.13
2019-04-26T12:40:28.213Z,97641.78
2019-04-26T12:41:40.380Z,97641.78
2019-04-26T12:42:35.646Z,97644.13
2019-04-26T12:43:41.548Z,97642.44
2019-04-26T12:45:12.253Z,97655.08
2019-04-26T12:46:28.477Z,97651.44
2019-04-26T12:47:40.669Z,97662.41
2019-04-26T12:48:50.008Z,97658.28
2019-04-26T12:49:54.553Z,97655.25
2019-04-26T12:50:59.260Z,97655.25
2019-04-26T12:52:02.133Z,97657.02
2019-04-26T12:53:04.985Z,97661.16
2019-04-26T12:54:09.866Z,97663.78
2019-04-26T12:55:13.832Z,97665.47
2019-04-26T12:56:26.558Z,97665.47
2019-04-26T12:57:27.587Z,97671.40
2019-04-26T12:58:31.194Z,97671.40
2019-04-26T12:59:46.257Z,97670.97
2019-04-26T13:00:54.267Z,97671.86
2019-04-26T13:02:05.069Z,97671.86
2019-04-26T13:02:59.330Z,97670.94
2019-04-26T13:04:06.239Z,97668.01
2019-04-26T13:05:09.155Z,97668.01
2019-04-26T13:06:12.391Z,97670.05
2019-04-26T13:07:23.897Z,97670.05
2019-04-26T13:08:22.437Z,97662.89
2019-04-26T13:09:26.596Z,97662.89
2019-04-26T13:10:52.072Z,97661.09
2019-04-26T13:12:12.356Z,97665.95
2019-04-26T13:13:41.943Z,97662.88
2019-04-26T13:15:13.148Z,97666.24
2019-04-26T13:16:36.244Z,97669.41
2019-04-26T13:17:45.046Z,97666.20
2019-04-26T13:18:50.015Z,97665.92
2019-04-26T13:19:55.492Z,97665.92
2019-04-26T13:20:58.604Z,97669.16
2019-04-26T13:22:02.049Z,97669.16
2019-04-26T13:23:04.931Z,97669.11
2019-04-26T13:24:08.060Z,97677.48
2019-04-26T13:25:17.300Z,97668.70
2019-04-26T13:26:15.354Z,97673.57
2019-04-26T13:27:18.630Z,97665.02
2019-04-26T13:28:21.871Z,97676.23
2019-04-26T13:29:27.314Z,97670.97
2019-04-26T13:30:32.985Z,97679.00
2019-04-26T13:31:36.070Z,97669.93
2019-04-26T13:32:40.053Z,97670.73
2019-04-26T13:33:44.766Z,97670.55
2019-04-26T13:34:48.684Z,97673.52
2019-04-26T13:36:02.547Z,97668.97
2019-04-26T13:36:59.178Z,97672.73